createdAt,value
2019-02-19T00:01:39.040Z,19.30
2019-02-19T00:04:14.286Z,17.20
2019-02-19T00:06:49.514Z,14.97
2019-02-19T00:09:24.940Z,16.83
2019-02-19T00:12:00.156Z,20.70
2019-02-19T00:14:35.406Z,18.10
2019-02-19T00:17:10.548Z,18.17
2019-02-19T00:19:45.779Z,18.20
2019-02-19T00:22:21.020Z,21.53
2019-02-19T00:24:56.269Z,19.10
2019-02-19T00:27:31.481Z,21.30
2019-02-19T00:30:06.840Z,19.93
2019-02-19T00:32:42.149Z,20.73
2019-02-19T00:35:17.294Z,19.63
2019-02-19T00:37:52.532Z,18.43
2019-02-19T00:40:27.888Z,19.70
2019-02-19T00:43:03.031Z,19.50
2019-02-19T00:45:38.320Z,18.43
2019-02-19T00:48:13.536Z,21.13
2019-02-19T00:50:48.709Z,18.63
2019-02-19T00:53:23.921Z,18.03
2019-02-19T00:55:59.109Z,19.77
2019-02-19T00:58:34.390Z,19.00
2019-02-19T01:01:09.711Z,19.17
2019-02-19T01:03:44.953Z,18.73
2019-02-19T01:06:20.208Z,20.60
2019-02-19T01:08:55.433Z,19.53
2019-02-19T01:11:30.976Z,19.83
2019-02-19T01:14:06.143Z,17.93
2019-02-19T01:16:41.404Z,20.33
2019-02-19T01:19:16.651Z,18.57
2019-02-19T01:21:51.892Z,22.07
2019-02-19T01:24:27.209Z,17.67
2019-02-19T01:27:02.406Z,18.83
2019-02-19T01:29:37.638Z,18.20
2019-02-19T01:32:12.878Z,17.90
2019-02-19T01:34:48.025Z,19.17
2019-02-19T01:37:23.262Z,23.10
2019-02-19T01:39:58.399Z,20.33
2019-02-19T01:42:33.735Z,18.80
2019-02-19T01:45:09.647Z,21.87
2019-02-19T01:47:44.861Z,21.03
2019-02-19T01:50:20.090Z,19.60
2019-02-19T01:52:55.366Z,22.10
2019-02-19T01:55:30.572Z,21.63
2019-02-19T01:58:05.758Z,21.40
2019-02-19T02:00:41.072Z,20.00
2019-02-19T02:03:16.307Z,22.83
2019-02-19T02:05:51.524Z,18.57
2019-02-19T02:08:26.672Z,20.43
2019-02-19T02:11:01.901Z,18.97
2019-02-19T02:13:37.416Z,19.87
2019-02-19T02:16:12.648Z,23.27
2019-02-19T02:18:47.808Z,20.10
2019-02-19T02:21:22.961Z,18.93
2019-02-19T02:23:58.287Z,20.90
2019-02-19T02:26:33.524Z,18.70
2019-02-19T02:29:08.765Z,20.40
2019-02-19T02:31:43.904Z,20.87
2019-02-19T02:34:19.476Z,19.63
2019-02-19T02:36:54.723Z,18.50
2019-02-19T02:39:29.957Z,19.30
2019-02-19T02:42:05.260Z,19.43
2019-02-19T02:44:40.493Z,19.30
2019-02-19T02:47:15.716Z,19.60
2019-02-19T02:49:50.887Z,20.80
2019-02-19T02:52:26.100Z,18.67
2019-02-19T02:55:01.276Z,19.03
2019-02-19T02:57:36.428Z,20.97
2019-02-19T03:00:12.927Z,19.10
2019-02-19T03:02:48.154Z,19.07
2019-02-19T03:05:25.308Z,18.63
2019-02-19T03:08:03.548Z,23.00
2019-02-19T03:10:38.806Z,19.27
2019-02-19T03:13:14.020Z,22.10
2019-02-19T03:15:49.386Z,20.47
2019-02-19T03:18:24.621Z,22.50
2019-02-19T03:20:59.882Z,23.27
2019-02-19T03:23:35.169Z,19.40
2019-02-19T03:26:10.464Z,23.00
2019-02-19T03:28:45.625Z,20.70
2019-02-19T03:31:20.794Z,25.20
2019-02-19T03:33:56.013Z,21.83
2019-02-19T03:36:31.247Z,20.73
2019-02-19T03:39:06.600Z,24.13
2019-02-19T03:41:41.764Z,23.50
2019-02-19T03:44:16.921Z,20.60
2019-02-19T03:46:52.162Z,22.43
2019-02-19T03:49:27.466Z,22.10
2019-02-19T03:52:02.711Z,21.47
2019-02-19T03:54:37.932Z,23.23
2019-02-19T03:57:13.160Z,20.00
2019-02-19T03:59:48.375Z,21.70
2019-02-19T04:02:23.724Z,20.90
2019-02-19T04:04:58.943Z,19.63
2019-02-19T04:07:34.246Z,20.50
2019-02-19T04:10:09.557Z,21.37
2019-02-19T04:12:44.804Z,20.80
2019-02-19T04:15:19.918Z,21.30
2019-02-19T04:17:55.207Z,21.43
2019-02-19T04:20:30.340Z,20.57
2019-02-19T04:23:05.600Z,21.17
2019-02-19T04:25:40.737Z,21.57
2019-02-19T04:28:15.994Z,21.27
2019-02-19T04:30:51.161Z,18.47
2019-02-19T04:33:26.464Z,19.20
2019-02-19T04:36:01.689Z,19.57
2019-02-19T04:38:36.852Z,18.23
2019-02-19T04:41:12.064Z,20.77
2019-02-19T04:43:47.225Z,22.87
2019-02-19T04:46:31.167Z,21.47
2019-02-19T04:48:59.389Z,21.73
2019-02-19T04:51:34.599Z,21.83
2019-02-19T04:54:09.766Z,21.90
2019-02-19T04:56:44.913Z,21.40
2019-02-19T04:59:20.235Z,21.87
2019-02-19T05:01:55.455Z,19.37
2019-02-19T05:04:30.710Z,23.03
2019-02-19T05:07:06.004Z,23.13
2019-02-19T05:09:41.239Z,21.90
2019-02-19T05:12:16.505Z,23.57
2019-02-19T05:14:51.776Z,22.93
2019-02-19T05:17:26.930Z,19.20
2019-02-19T05:20:02.187Z,23.20
2019-02-19T05:22:37.405Z,21.27
2019-02-19T05:25:12.725Z,22.50
2019-02-19T05:27:47.952Z,26.40
2019-02-19T05:30:23.211Z,24.27
2019-02-19T05:32:58.525Z,21.33
2019-02-19T05:35:33.826Z,22.43
2019-02-19T05:38:09.041Z,23.67
2019-02-19T05:40:44.216Z,25.10
2019-02-19T05:43:19.378Z,23.13
2019-02-19T05:45:54.688Z,21.20
2019-02-19T05:48:29.903Z,23.90
2019-02-19T05:51:05.231Z,27.17
2019-02-19T05:53:40.455Z,24.87
2019-02-19T05:56:15.725Z,27.93
2019-02-19T05:58:50.873Z,25.57
2019-02-19T06:01:26.121Z,21.90
2019-02-19T06:04:01.346Z,27.70
2019-02-19T06:06:36.602Z,22.67
2019-02-19T06:09:11.898Z,24.97
2019-02-19T06:11:47.153Z,25.67
2019-02-19T06:14:22.397Z,29.87
2019-02-19T06:16:58.802Z,24.27
2019-02-19T06:19:34.194Z,25.23
2019-02-19T06:22:09.405Z,25.43
2019-02-19T06:24:44.570Z,24.60
2019-02-19T06:27:19.874Z,29.17
2019-02-19T06:29:55.100Z,30.00
2019-02-19T06:32:30.261Z,28.27
2019-02-19T06:35:05.731Z,25.97
2019-02-19T06:37:41.065Z,27.20
2019-02-19T06:40:27.517Z,29.93
2019-02-19T06:43:02.736Z,30.10
2019-02-19T06:45:37.966Z,27.50
2019-02-19T06:48:13.569Z,30.63
2019-02-19T06:50:48.775Z,25.97
2019-02-19T06:53:24.089Z,26.37
2019-02-19T06:55:59.253Z,29.20
2019-02-19T06:58:34.516Z,28.93
2019-02-19T07:01:09.813Z,26.97
2019-02-19T07:03:57.588Z,25.50
2019-02-19T07:06:32.831Z,26.93
2019-02-19T07:09:08.071Z,29.77
2019-02-19T07:11:43.221Z,27.27
2019-02-19T07:14:18.449Z,26.57
2019-02-19T07:16:53.749Z,27.13
2019-02-19T07:19:29.062Z,26.17
2019-02-19T07:22:04.360Z,27.47
2019-02-19T07:24:39.613Z,25.57
2019-02-19T07:27:14.838Z,26.47
2019-02-19T07:29:50.062Z,27.03
2019-02-19T07:32:25.234Z,26.63
2019-02-19T07:35:00.468Z,27.27
2019-02-19T07:37:35.712Z,26.07
2019-02-19T07:40:10.959Z,28.47
2019-02-19T07:42:46.104Z,27.90
2019-02-19T07:45:21.287Z,26.93
2019-02-19T07:47:56.442Z,26.30
2019-02-19T07:50:31.688Z,30.53
2019-02-19T07:53:06.898Z,26.33
2019-02-19T07:55:42.075Z,28.00
2019-02-19T07:58:17.357Z,30.77
2019-02-19T08:00:52.613Z,29.73
2019-02-19T08:03:27.774Z,29.17
2019-02-19T08:06:03.100Z,30.00
2019-02-19T08:08:38.325Z,31.90
2019-02-19T08:11:13.502Z,29.57
2019-02-19T08:13:48.736Z,31.30
2019-02-19T08:16:23.974Z,30.60
2019-02-19T08:18:59.212Z,27.50
2019-02-19T08:21:34.440Z,28.37
2019-02-19T08:24:09.671Z,31.03
2019-02-19T08:26:44.845Z,31.00
2019-02-19T08:29:20.064Z,31.50
2019-02-19T08:31:55.236Z,31.73
2019-02-19T08:34:30.452Z,31.67
2019-02-19T08:37:05.608Z,30.47
2019-02-19T08:39:40.855Z,30.80
2019-02-19T08:42:16.107Z,29.70
2019-02-19T08:44:51.400Z,30.33
2019-02-19T08:47:26.649Z,30.60
2019-02-19T08:50:01.883Z,29.80
2019-02-19T08:52:37.214Z,30.00
2019-02-19T08:55:12.446Z,28.87
2019-02-19T08:57:47.689Z,30.63
2019-02-19T09:00:22.903Z,31.37
2019-02-19T09:02:58.066Z,31.00
2019-02-19T09:05:33.217Z,30.93
2019-02-19T09:08:08.454Z,28.87
2019-02-19T09:10:43.679Z,30.37
2019-02-19T09:13:19.066Z,41.40
2019-02-19T09:15:54.282Z,33.43
2019-02-19T09:18:29.530Z,31.27
2019-02-19T09:21:04.809Z,33.17
2019-02-19T09:23:39.972Z,46.37
2019-02-19T09:26:15.116Z,28.50
2019-02-19T09:28:50.399Z,27.57
2019-02-19T09:31:25.660Z,25.57
2019-02-19T09:34:00.817Z,25.93
2019-02-19T09:36:36.034Z,24.57
2019-02-19T09:39:11.753Z,25.13
2019-02-19T09:41:46.991Z,29.43
2019-02-19T09:44:22.155Z,40.90
2019-02-19T09:46:57.452Z,27.37
2019-02-19T09:49:32.686Z,27.10
2019-02-19T09:52:08.028Z,24.73
2019-02-19T09:54:43.194Z,22.87
2019-02-19T09:57:18.350Z,24.27
2019-02-19T09:59:53.500Z,24.43
2019-02-19T10:02:28.723Z,21.93
2019-02-19T10:05:03.907Z,24.77
2019-02-19T10:07:39.186Z,36.77
2019-02-19T10:10:15.854Z,43.23
2019-02-19T10:12:51.155Z,34.80
2019-02-19T10:15:26.404Z,24.23
2019-02-19T10:18:09.704Z,20.70
2019-02-19T10:20:38.503Z,19.93
2019-02-19T10:23:13.652Z,19.17
2019-02-19T10:25:48.843Z,18.07
2019-02-19T10:28:23.985Z,18.57
2019-02-19T10:30:59.161Z,17.93
2019-02-19T10:33:34.312Z,25.43
2019-02-19T10:36:09.411Z,20.93
2019-02-19T10:38:44.564Z,22.13
2019-02-19T10:41:19.732Z,21.90
2019-02-19T10:43:54.895Z,25.80
2019-02-19T10:46:30.215Z,22.83
2019-02-19T10:49:05.547Z,20.37
2019-02-19T10:51:40.809Z,18.47
2019-02-19T10:54:16.037Z,19.23
2019-02-19T10:56:51.349Z,17.30
2019-02-19T10:59:26.589Z,18.47
2019-02-19T11:02:01.831Z,18.23
2019-02-19T11:04:37.124Z,16.90
2019-02-19T11:07:12.361Z,18.33
2019-02-19T11:09:47.586Z,17.90
2019-02-19T11:12:22.825Z,17.63
2019-02-19T11:14:58.058Z,17.67
2019-02-19T11:17:33.329Z,17.70
2019-02-19T11:20:10.445Z,16.67
2019-02-19T11:22:45.681Z,15.77
2019-02-19T11:25:20.836Z,16.17
2019-02-19T11:27:56.023Z,16.03
2019-02-19T11:30:31.173Z,15.17
2019-02-19T11:33:06.367Z,16.60
2019-02-19T11:35:41.600Z,15.60
2019-02-19T11:38:16.758Z,16.43
2019-02-19T11:40:51.992Z,15.47
2019-02-19T11:43:27.291Z,16.10
2019-02-19T11:46:02.534Z,14.97
2019-02-19T11:48:37.793Z,14.70
2019-02-19T11:51:13.023Z,16.40
2019-02-19T11:53:48.307Z,15.60
2019-02-19T11:56:23.617Z,13.87
2019-02-19T11:58:58.859Z,14.47
2019-02-19T12:01:34.097Z,14.03
2019-02-19T12:04:09.351Z,14.70
2019-02-19T12:06:44.644Z,13.97
2019-02-19T12:09:19.881Z,14.23
2019-02-19T12:11:55.033Z,14.33
2019-02-19T12:14:30.298Z,15.70
2019-02-19T12:17:05.530Z,15.10
2019-02-19T12:19:40.757Z,14.23
2019-02-19T12:22:15.977Z,14.33
2019-02-19T12:24:51.223Z,13.27
2019-02-19T12:27:26.448Z,14.90
2019-02-19T12:30:01.767Z,12.97
2019-02-19T12:32:37.008Z,14.77
2019-02-19T12:35:12.405Z,13.30
2019-02-19T12:37:47.558Z,13.07
2019-02-19T12:40:22.904Z,17.70
2019-02-19T12:42:58.127Z,14.83
2019-02-19T12:45:33.372Z,15.50
2019-02-19T12:48:08.560Z,14.90
2019-02-19T12:50:43.886Z,13.20
2019-02-19T12:53:19.190Z,13.93
2019-02-19T12:55:54.465Z,11.83
2019-02-19T12:58:29.801Z,12.80
2019-02-19T13:01:05.290Z,21.57
2019-02-19T13:03:40.525Z,16.70
2019-02-19T13:06:15.769Z,13.70
2019-02-19T13:08:51.001Z,13.50
2019-02-19T13:11:26.235Z,12.37
2019-02-19T13:14:01.537Z,12.47
2019-02-19T13:16:36.703Z,12.13
2019-02-19T13:19:11.934Z,12.53
2019-02-19T13:21:47.132Z,11.27
2019-02-19T13:24:22.311Z,10.87
2019-02-19T13:26:57.537Z,10.70
2019-02-19T13:29:33.781Z,12.37
2019-02-19T13:32:09.020Z,11.10
2019-02-19T13:34:44.174Z,10.07
2019-02-19T13:37:19.413Z,10.13
2019-02-19T13:39:54.574Z,9.43
2019-02-19T13:42:29.818Z,9.73
2019-02-19T13:45:05.429Z,10.27
2019-02-19T13:47:40.664Z,9.53
2019-02-19T13:50:17.919Z,9.83
2019-02-19T13:53:24.337Z,8.77
2019-02-19T13:56:01.024Z,10.30
2019-02-19T13:58:36.229Z,9.07
2019-02-19T14:01:11.518Z,9.30
2019-02-19T14:03:46.796Z,9.83
2019-02-19T14:06:22.004Z,10.03
2019-02-19T14:08:57.345Z,9.67
2019-02-19T14:11:32.625Z,9.20
2019-02-19T14:14:35.935Z,7.93
2019-02-19T14:17:14.458Z,9.10
2019-02-19T14:20:06.521Z,11.93
2019-02-19T14:23:05.751Z,9.03
2019-02-19T14:25:58.266Z,8.03
2019-02-19T14:29:04.596Z,7.67
2019-02-19T14:31:53.172Z,8.33
2019-02-19T14:34:50.270Z,8.33
2019-02-19T14:37:36.432Z,9.03
2019-02-19T14:40:39.695Z,7.40
2019-02-19T14:43:28.083Z,8.33
2019-02-19T14:46:12.693Z,9.90
2019-02-19T14:49:10.998Z,10.60
2019-02-19T14:52:17.610Z,7.53
2019-02-19T14:55:01.011Z,10.80
2019-02-19T14:58:01.311Z,7.73
2019-02-19T15:00:58.622Z,12.53
2019-02-19T15:03:50.556Z,7.97
2019-02-19T15:06:44.769Z,7.67
2019-02-19T15:09:41.862Z,8.30
2019-02-19T15:12:34.855Z,7.97
2019-02-19T15:15:41.436Z,8.47
2019-02-19T15:18:44.835Z,8.90
2019-02-19T15:21:44.961Z,8.63
2019-02-19T15:24:42.344Z,9.13
2019-02-19T15:27:25.871Z,7.57
2019-02-19T15:30:18.941Z,6.77
2019-02-19T15:33:13.070Z,6.97
2019-02-19T15:36:08.824Z,9.37
2019-02-19T15:38:59.735Z,7.30
2019-02-19T15:42:02.996Z,8.83
2019-02-19T15:44:57.135Z,7.37
2019-02-19T15:47:57.456Z,8.17
2019-02-19T15:50:50.473Z,12.63
2019-02-19T15:53:42.654Z,7.57
2019-02-19T15:56:35.306Z,8.30
2019-02-19T15:59:28.393Z,7.40
2019-02-19T16:02:22.479Z,9.37
2019-02-19T16:05:15.695Z,7.23
2019-02-19T16:08:08.626Z,7.80
2019-02-19T16:11:00.005Z,7.50
2019-02-19T16:14:00.133Z,9.77
2019-02-19T16:16:53.204Z,8.43
2019-02-19T16:19:36.847Z,9.83
2019-02-19T16:22:28.831Z,7.50
2019-02-19T16:25:35.038Z,9.80
2019-02-19T16:28:19.017Z,13.47
2019-02-19T16:31:25.492Z,11.53
2019-02-19T16:34:18.482Z,9.57
2019-02-19T16:37:06.056Z,8.60
2019-02-19T16:40:00.320Z,9.03
2019-02-19T16:42:48.163Z,9.30
2019-02-19T16:45:31.429Z,8.93
2019-02-19T16:48:24.439Z,8.67
2019-02-19T16:51:06.656Z,9.30
2019-02-19T16:53:59.497Z,8.77
2019-02-19T16:57:05.408Z,9.40
2019-02-19T16:59:59.476Z,8.97
2019-02-19T17:02:59.623Z,7.90
2019-02-19T17:05:49.646Z,7.07
2019-02-19T17:08:46.917Z,7.20
2019-02-19T17:11:41.142Z,7.23
2019-02-19T17:14:33.059Z,7.30
2019-02-19T17:17:12.225Z,10.80
2019-02-19T17:20:26.402Z,11.63
2019-02-19T17:23:08.079Z,9.37
2019-02-19T17:26:05.081Z,8.37
2019-02-19T17:28:57.985Z,8.00
2019-02-19T17:31:58.137Z,8.20
2019-02-19T17:35:10.765Z,8.10
2019-02-19T17:37:56.709Z,8.07
2019-02-19T17:40:47.825Z,13.43
2019-02-19T17:43:48.041Z,12.77
2019-02-19T17:46:41.112Z,9.27
2019-02-19T17:49:35.269Z,9.00
2019-02-19T17:52:37.487Z,7.23
2019-02-19T17:55:23.744Z,14.83
2019-02-19T17:58:33.270Z,19.40
2019-02-19T18:01:28.410Z,13.67
2019-02-19T18:04:41.049Z,17.27
2019-02-19T18:07:34.789Z,13.40
2019-02-19T18:10:24.565Z,11.10
2019-02-19T18:13:13.130Z,10.73
2019-02-19T18:16:16.161Z,8.63
2019-02-19T18:18:51.405Z,8.27
2019-02-19T18:21:26.699Z,8.07
2019-02-19T18:24:01.919Z,8.80
2019-02-19T18:26:37.081Z,7.90
2019-02-19T18:29:12.236Z,9.00
2019-02-19T18:31:47.465Z,8.70
2019-02-19T18:34:22.788Z,8.10
2019-02-19T18:36:57.940Z,7.97
2019-02-19T18:39:33.179Z,9.80
2019-02-19T18:42:08.396Z,8.83
2019-02-19T18:44:43.754Z,8.13
2019-02-19T18:47:19.051Z,9.13
2019-02-19T18:49:54.310Z,8.00
2019-02-19T18:52:29.524Z,9.50
2019-02-19T18:55:04.770Z,8.03
2019-02-19T18:57:40.012Z,8.93
2019-02-19T19:00:15.229Z,7.73
2019-02-19T19:02:50.526Z,7.77
2019-02-19T19:05:25.710Z,10.57
2019-02-19T19:08:00.936Z,8.37
2019-02-19T19:10:36.275Z,9.90
2019-02-19T19:13:11.515Z,7.97
2019-02-19T19:15:46.836Z,10.90
2019-02-19T19:18:22.151Z,8.60
2019-02-19T19:20:57.443Z,8.43
2019-02-19T19:23:32.734Z,10.43
2019-02-19T19:26:07.902Z,9.93
2019-02-19T19:28:43.184Z,8.67
2019-02-19T19:31:18.506Z,9.20
2019-02-19T19:33:53.812Z,8.77
2019-02-19T19:36:29.040Z,8.50
2019-02-19T19:39:05.260Z,8.33
2019-02-19T19:41:40.427Z,6.60
2019-02-19T19:44:15.716Z,6.67
2019-02-19T19:46:50.881Z,8.10
2019-02-19T19:49:26.126Z,6.70
2019-02-19T19:52:01.365Z,7.50
2019-02-19T19:54:36.652Z,6.93
2019-02-19T19:57:11.899Z,6.93
2019-02-19T19:59:47.166Z,8.53
2019-02-19T20:02:22.421Z,9.23
2019-02-19T20:04:57.721Z,7.30
2019-02-19T20:07:32.905Z,7.63
2019-02-19T20:10:08.927Z,8.93
2019-02-19T20:12:44.178Z,8.10
2019-02-19T20:15:19.427Z,8.43
2019-02-19T20:17:54.729Z,7.47
2019-02-19T20:20:30.033Z,8.10
2019-02-19T20:23:05.202Z,8.67
2019-02-19T20:25:40.514Z,8.70
2019-02-19T20:28:15.893Z,8.73
2019-02-19T20:30:51.129Z,12.00
2019-02-19T20:33:26.476Z,9.87
2019-02-19T20:36:01.702Z,8.50
2019-02-19T20:38:37.045Z,8.13
2019-02-19T20:41:12.194Z,8.83
2019-02-19T20:43:47.478Z,8.87
2019-02-19T20:46:22.716Z,8.53
2019-02-19T20:49:00.216Z,10.00
2019-02-19T20:51:36.566Z,11.10
2019-02-19T20:54:11.992Z,11.07
2019-02-19T20:56:47.281Z,10.40
2019-02-19T20:59:22.584Z,9.40
2019-02-19T21:01:57.808Z,10.13
2019-02-19T21:04:33.032Z,8.80
2019-02-19T21:07:08.265Z,9.60
2019-02-19T21:09:44.205Z,10.10
2019-02-19T21:12:19.428Z,11.20
2019-02-19T21:14:54.673Z,11.67
2019-02-19T21:17:29.837Z,10.97
2019-02-19T21:20:05.221Z,11.73
2019-02-19T21:22:40.524Z,11.43
2019-02-19T21:25:15.857Z,14.93
2019-02-19T21:27:51.185Z,14.20
2019-02-19T21:30:26.438Z,17.43
2019-02-19T21:33:01.600Z,18.80
2019-02-19T21:35:36.781Z,21.47
2019-02-19T21:38:12.017Z,13.17
2019-02-19T21:40:47.342Z,13.07
2019-02-19T21:43:22.644Z,13.40
2019-02-19T21:45:57.816Z,13.00
2019-02-19T21:48:33.052Z,12.97
2019-02-19T21:51:08.314Z,14.00
2019-02-19T21:53:43.553Z,12.60
2019-02-19T21:56:18.730Z,13.13
2019-02-19T21:58:54.558Z,12.80
2019-02-19T22:01:29.817Z,13.77
2019-02-19T22:04:05.017Z,12.10
2019-02-19T22:06:40.298Z,13.23
2019-02-19T22:09:15.670Z,13.53
2019-02-19T22:11:50.985Z,13.63
2019-02-19T22:14:26.141Z,13.83
2019-02-19T22:17:01.313Z,13.67
2019-02-19T22:19:36.629Z,12.53
2019-02-19T22:22:16.556Z,14.43
2019-02-19T22:24:51.728Z,13.37
2019-02-19T22:27:27.050Z,14.47
2019-02-19T22:30:02.212Z,13.77
2019-02-19T22:32:37.575Z,12.20
2019-02-19T22:35:12.818Z,13.37
2019-02-19T22:37:48.076Z,13.00
2019-02-19T22:40:23.229Z,14.50
2019-02-19T22:42:58.478Z,13.50
2019-02-19T22:45:33.646Z,13.47
2019-02-19T22:48:08.898Z,13.10
2019-02-19T22:50:44.200Z,13.80
2019-02-19T22:53:37.283Z,12.87
2019-02-19T22:56:22.487Z,12.93
2019-02-19T22:58:57.714Z,13.57
2019-02-19T23:01:41.762Z,11.97
2019-02-19T23:04:17.058Z,12.77
2019-02-19T23:06:52.379Z,14.07
2019-02-19T23:09:27.609Z,14.63
2019-02-19T23:12:02.827Z,14.27
2019-02-19T23:14:38.064Z,13.50
2019-02-19T23:17:13.276Z,15.23
2019-02-19T23:19:48.615Z,14.87
2019-02-19T23:22:23.833Z,13.93
2019-02-19T23:24:59.098Z,14.40
2019-02-19T23:27:34.395Z,13.90
2019-02-19T23:30:09.552Z,15.20
2019-02-19T23:32:44.728Z,14.33
2019-02-19T23:35:26.744Z,14.70
2019-02-19T23:38:01.978Z,13.63
2019-02-19T23:40:37.146Z,13.53
2019-02-19T23:43:12.445Z,14.77
2019-02-19T23:45:47.623Z,15.00
2019-02-19T23:48:22.779Z,13.93
2019-02-19T23:50:58.016Z,13.57
2019-02-19T23:53:33.239Z,13.17
2019-02-19T23:56:08.485Z,13.80
2019-02-19T23:58:43.796Z,14.60
